Time;durP1;ratioP1;P1;durP2;ratioP2;P2;SDS_P1;SDS_P2;PMS_P1;PMS_P2;Temp;Humidity;BMP_temperature;BMP_pressure;BME280_temperature;BME280_humidity;BME280_pressure;Samples;Min_cycle;Max_cycle;Signal;HPM_P1;HPM_P2
2024/01/22 00:00:08;;;;;;;21.30;14.00;;;;;;;-1.68;100.00;102910.20;106496;1248;72649;-75
2024/01/22 00:02:40;;;;;;;21.10;13.50;;;;;;;-1.61;100.00;102909.02;107562;1248;60230;-74
2024/01/22 00:05:09;;;;;;;19.50;12.10;;;;;;;-1.58;100.00;102913.23;107849;1248;59582;-73
2024/01/22 00:07:36;;;;;;;17.90;12.40;;;;;;;-1.54;100.00;102913.52;108815;1248;71537;-73
2024/01/22 00:10:05;;;;;;;21.60;13.30;;;;;;;-1.49;100.00;102911.77;109180;1248;62642;-73
2024/01/22 00:12:33;;;;;;;20.10;11.70;;;;;;;-1.45;100.00;102909.45;106859;1253;71416;-75
2024/01/22 00:15:00;;;;;;;18.80;12.30;;;;;;;-1.41;100.00;102913.19;106165;1253;61105;-74
2024/01/22 00:17:27;;;;;;;17.60;12.30;;;;;;;-1.38;100.00;102912.40;106058;1251;60084;-73
2024/01/22 00:19:54;;;;;;;14.90;11.10;;;;;;;-1.34;100.00;102916.27;106247;1250;71542;-76
2024/01/22 00:22:20;;;;;;;15.50;11.30;;;;;;;-1.32;100.00;102912.03;106162;1248;62668;-75
2024/01/22 00:24:47;;;;;;;16.50;11.20;;;;;;;-1.30;100.00;102915.53;106173;1252;72714;-72
2024/01/22 00:27:14;;;;;;;17.90;11.20;;;;;;;-1.29;100.00;102911.96;106282;1254;61167;-76
2024/01/22 00:29:41;;;;;;;19.40;11.80;;;;;;;-1.31;100.00;102914.47;106163;1253;59630;-74
2024/01/22 00:32:08;;;;;;;18.50;11.90;;;;;;;-1.33;100.00;102910.81;106143;1248;72983;-73
2024/01/22 00:34:36;;;;;;;18.20;11.20;;;;;;;-1.32;100.00;102912.56;106246;1251;62526;-75
2024/01/22 00:37:03;;;;;;;18.00;11.00;;;;;;;-1.34;100.00;102914.56;106247;1248;72476;-74
2024/01/22 00:39:30;;;;;;;17.00;11.60;;;;;;;-1.37;100.00;102914.14;106123;1253;61075;-74
2024/01/22 00:41:57;;;;;;;18.10;11.10;;;;;;;-1.41;100.00;102920.03;106136;1253;60491;-75
2024/01/22 00:44:24;;;;;;;15.70;9.60;;;;;;;-1.47;100.00;102925.90;106247;1252;73706;-75
2024/01/22 00:46:51;;;;;;;15.50;9.50;;;;;;;-1.48;100.00;102923.80;106114;1253;62509;-77
2024/01/22 00:49:18;;;;;;;15.20;10.10;;;;;;;-1.49;100.00;102922.58;106233;1253;72854;-76
2024/01/22 00:51:44;;;;;;;15.00;10.00;;;;;;;-1.46;100.00;102925.05;106172;1253;61000;-75
2024/01/22 00:54:11;;;;;;;19.70;11.20;;;;;;;-1.41;100.00;102924.82;106138;1248;60528;-75
2024/01/22 00:56:38;;;;;;;17.30;10.30;;;;;;;-1.40;100.00;102921.27;106234;1249;73827;-73
2024/01/22 00:59:06;;;;;;;16.50;11.70;;;;;;;-1.43;100.00;102921.35;106023;1254;63991;-73
2024/01/22 01:01:33;;;;;;;18.60;11.10;;;;;;;-1.51;100.00;102921.32;106148;1253;72587;-73
2024/01/22 01:03:59;;;;;;;17.20;11.00;;;;;;;-1.58;100.00;102920.11;106159;1253;61112;-73
2024/01/22 01:06:26;;;;;;;21.70;12.70;;;;;;;-1.67;100.00;102914.37;106150;1253;60417;-73
2024/01/22 01:08:54;;;;;;;19.60;10.90;;;;;;;-1.71;100.00;102916.83;106167;1248;73703;-74
2024/01/22 01:11:21;;;;;;;21.30;12.20;;;;;;;-1.77;100.00;102917.85;106197;1251;63252;-72
2024/01/22 01:13:48;;;;;;;17.50;10.70;;;;;;;-1.76;100.00;102916.70;106181;1248;72750;-74
2024/01/22 01:16:16;;;;;;;21.60;12.10;;;;;;;-1.70;100.00;102918.22;106159;1248;61110;-73
2024/01/22 01:18:43;;;;;;;24.80;12.20;;;;;;;-1.67;100.00;102920.89;106210;1249;60565;-74
2024/01/22 01:21:10;;;;;;;17.80;12.20;;;;;;;-1.66;100.00;102921.25;106220;1248;73752;-73
2024/01/22 01:23:36;;;;;;;17.80;10.90;;;;;;;-1.68;100.00;102922.73;106133;1248;63812;-73
2024/01/22 01:26:04;;;;;;;24.30;12.90;;;;;;;-1.69;100.00;102930.92;106179;1248;72726;-74
2024/01/22 01:28:30;;;;;;;16.50;11.40;;;;;;;-1.63;100.00;102937.11;106188;1252;61173;-73
2024/01/22 01:30:58;;;;;;;19.40;11.50;;;;;;;-1.56;100.00;102938.84;106002;1252;60450;-74
2024/01/22 01:33:25;;;;;;;18.30;11.60;;;;;;;-1.54;100.00;102942.17;106045;1249;73970;-73
2024/01/22 01:35:53;;;;;;;19.30;11.90;;;;;;;-1.54;100.00;102941.98;106115;1253;62327;-74
2024/01/22 01:38:20;;;;;;;19.30;10.50;;;;;;;-1.54;100.00;102946.10;106089;1250;72693;-73
2024/01/22 01:40:46;;;;;;;17.70;11.00;;;;;;;-1.51;100.00;102950.99;106108;1253;60533;-74
2024/01/22 01:43:15;;;;;;;14.50;9.70;;;;;;;-1.49;100.00;102953.78;106131;1252;60632;-75
2024/01/22 01:45:43;;;;;;;16.90;10.50;;;;;;;-1.49;100.00;102955.16;106123;1254;72712;-73
2024/01/22 01:48:10;;;;;;;18.40;9.90;;;;;;;-1.49;100.00;102964.57;106106;1254;63666;-74
2024/01/22 01:50:37;;;;;;;15.10;9.30;;;;;;;-1.51;100.00;102966.27;105970;1250;71368;-73
2024/01/22 01:53:05;;;;;;;15.60;9.30;;;;;;;-1.53;100.00;102970.51;105977;1253;61142;-75
2024/01/22 01:55:32;;;;;;;18.60;11.00;;;;;;;-1.54;100.00;102973.20;105965;1253;60344;-76
2024/01/22 01:57:59;;;;;;;20.00;11.00;;;;;;;-1.55;100.00;102976.11;105954;1250;72397;-74
2024/01/22 02:00:32;;;;;;;17.60;11.10;;;;;;;-1.58;100.00;102971.73;105939;1254;63857;-74
2024/01/22 02:02:59;;;;;;;19.10;11.30;;;;;;;-1.59;100.00;102978.04;105849;1251;72671;-74
2024/01/22 02:05:25;;;;;;;16.70;10.90;;;;;;;-1.56;100.00;102980.17;105817;1256;61126;-76
2024/01/22 02:07:52;;;;;;;15.70;10.20;;;;;;;-1.55;100.00;102982.26;105952;1251;60555;-75
2024/01/22 02:10:19;;;;;;;18.10;11.60;;;;;;;-1.57;100.00;102984.27;105928;1254;73899;-74
2024/01/22 02:12:46;;;;;;;16.70;10.80;;;;;;;-1.57;100.00;102987.88;106043;1251;64025;-75
2024/01/22 02:15:14;;;;;;;17.80;11.80;;;;;;;-1.58;100.00;102993.34;106050;1251;70032;-75
2024/01/22 02:17:41;;;;;;;20.40;11.70;;;;;;;-1.62;100.00;102993.36;105992;1251;61186;-74
2024/01/22 02:20:10;;;;;;;22.30;10.90;;;;;;;-1.68;100.00;102988.95;107410;1253;59390;-75
2024/01/22 02:22:37;;;;;;;19.20;10.60;;;;;;;-1.70;100.00;102991.61;106933;1251;73814;-74
2024/01/22 02:25:04;;;;;;;15.80;10.70;;;;;;;-1.70;100.00;102993.67;106127;1253;62416;-74
2024/01/22 02:27:31;;;;;;;17.10;11.40;;;;;;;-1.70;100.00;102991.96;105976;1251;72739;-74
2024/01/22 02:29:58;;;;;;;17.80;11.50;;;;;;;-1.71;100.00;102996.06;105939;1253;61256;-74
2024/01/22 02:32:25;;;;;;;13.90;9.60;;;;;;;-1.72;100.00;102998.25;105972;1251;60443;-74
2024/01/22 02:34:52;;;;;;;18.40;11.50;;;;;;;-1.76;100.00;102998.81;105984;1253;71642;-72
2024/01/22 02:37:19;;;;;;;18.50;9.00;;;;;;;-1.77;100.00;102998.10;106075;1251;64579;-73
2024/01/22 02:39:46;;;;;;;18.00;9.70;;;;;;;-1.77;100.00;103002.21;106102;1254;72712;-75
2024/01/22 02:42:12;;;;;;;14.90;9.40;;;;;;;-1.77;100.00;103007.87;105978;1253;61251;-75
2024/01/22 02:44:41;;;;;;;18.00;9.80;;;;;;;-1.78;100.00;103010.08;105961;1253;60482;-74
2024/01/22 02:47:08;;;;;;;17.70;9.30;;;;;;;-1.77;100.00;103011.98;106044;1251;73789;-73
2024/01/22 02:49:35;;;;;;;13.60;8.50;;;;;;;-1.77;100.00;103012.33;106101;1253;63853;-72
2024/01/22 02:52:03;;;;;;;12.90;8.40;;;;;;;-1.77;100.00;103013.70;106005;1251;70871;-75
2024/01/22 02:54:30;;;;;;;12.60;7.90;;;;;;;-1.76;100.00;103016.64;106165;1253;61098;-75
2024/01/22 02:56:58;;;;;;;13.20;8.20;;;;;;;-1.79;100.00;103017.92;106108;1251;60469;-74
2024/01/22 02:59:25;;;;;;;14.50;8.90;;;;;;;-1.85;100.00;103013.27;106126;1253;73876;-74
2024/01/22 03:01:52;;;;;;;12.70;9.20;;;;;;;-1.88;100.00;103011.14;106030;1253;63849;-74
2024/01/22 03:04:19;;;;;;;12.20;8.20;;;;;;;-1.87;100.00;103013.06;105901;1253;72699;-75
2024/01/22 03:06:47;;;;;;;12.60;7.90;;;;;;;-1.89;100.00;103020.89;105939;1254;61106;-75
2024/01/22 03:09:15;;;;;;;12.40;8.40;;;;;;;-1.92;100.00;103021.49;105980;1251;60548;-73
2024/01/22 03:11:42;;;;;;;13.10;8.20;;;;;;;-1.95;100.00;103030.83;106007;1251;73709;-76
2024/01/22 03:14:09;;;;;;;11.30;7.00;;;;;;;-1.94;100.00;103034.11;106031;1253;63727;-74
2024/01/22 03:16:35;;;;;;;12.50;8.20;;;;;;;-1.94;100.00;103026.55;106031;1251;72716;-75
2024/01/22 03:19:03;;;;;;;11.10;8.00;;;;;;;-1.95;100.00;103029.45;105994;1254;61048;-74
2024/01/22 03:21:30;;;;;;;11.80;6.80;;;;;;;-1.95;100.00;103031.85;106013;1252;60335;-74
2024/01/22 03:23:57;;;;;;;10.80;7.90;;;;;;;-1.96;100.00;103035.57;105961;1254;73870;-74
2024/01/22 03:26:23;;;;;;;10.90;7.40;;;;;;;-2.00;100.00;103038.90;106285;1253;62213;-73
2024/01/22 03:28:50;;;;;;;11.50;7.30;;;;;;;-1.99;100.00;103041.14;106098;1251;73275;-75
2024/01/22 03:31:24;;;;;;;10.80;7.00;;;;;;;-1.98;100.00;103037.92;106072;1254;61028;-74
2024/01/22 03:33:52;;;;;;;10.10;7.20;;;;;;;-1.98;100.00;103040.51;106128;1252;60520;-76
2024/01/22 03:36:20;;;;;;;12.40;7.20;;;;;;;-1.98;100.00;103042.54;106034;1253;73588;-76
2024/01/22 03:38:47;;;;;;;14.60;8.50;;;;;;;-2.01;100.00;103048.80;106043;1253;63851;-76
2024/01/22 03:41:14;;;;;;;13.00;8.60;;;;;;;-2.04;100.00;103052.98;106118;1252;72750;-76
2024/01/22 03:43:42;;;;;;;11.60;7.20;;;;;;;-2.06;100.00;103055.84;106081;1253;61161;-74
2024/01/22 03:46:11;;;;;;;19.80;8.10;;;;;;;-2.13;100.00;103057.16;106084;1251;60461;-76
2024/01/22 03:48:38;;;;;;;14.70;8.90;;;;;;;-2.21;100.00;103058.11;107272;1250;73488;-74
2024/01/22 03:51:06;;;;;;;17.80;9.20;;;;;;;-2.24;100.00;103064.00;109861;1251;62534;-76
2024/01/22 03:53:33;;;;;;;10.50;7.30;;;;;;;-2.29;100.00;103070.86;109135;1250;71216;-75
2024/01/22 03:56:05;;;;;;;15.40;7.80;;;;;;;-2.36;100.00;103072.71;109475;1250;59675;-71
2024/01/22 03:58:33;;;;;;;12.80;7.30;;;;;;;-2.45;100.00;103073.77;109470;1251;59028;-76
2024/01/22 04:01:01;;;;;;;13.90;8.10;;;;;;;-2.52;100.00;103073.55;106414;1253;73850;-75
2024/01/22 04:03:28;;;;;;;16.40;9.00;;;;;;;-2.58;100.00;103079.17;106112;1253;62489;-76
2024/01/22 04:05:54;;;;;;;15.60;8.10;;;;;;;-2.61;100.00;103078.20;106112;1253;72508;-76
2024/01/22 04:08:21;;;;;;;11.50;8.00;;;;;;;-2.64;100.00;103076.91;106078;1254;60532;-75
2024/01/22 04:10:48;;;;;;;17.00;8.20;;;;;;;-2.68;100.00;103081.21;106074;1254;60423;-75
2024/01/22 04:13:15;;;;;;;13.30;7.30;;;;;;;-2.71;100.00;103089.14;106116;1254;72141;-75
2024/01/22 04:15:43;;;;;;;12.60;7.40;;;;;;;-2.72;100.00;103087.77;106101;1254;63791;-75
2024/01/22 04:18:11;;;;;;;15.30;8.90;;;;;;;-2.79;100.00;103091.27;106033;1252;73126;-76
2024/01/22 04:20:37;;;;;;;15.30;9.10;;;;;;;-2.89;100.00;103098.98;106058;1252;60532;-76
2024/01/22 04:23:04;;;;;;;17.60;9.20;;;;;;;-2.97;100.00;103097.99;106035;1254;60309;-76
2024/01/22 04:25:31;;;;;;;15.00;8.30;;;;;;;-3.02;100.00;103101.42;105996;1251;72855;-75
2024/01/22 04:27:59;;;;;;;23.20;9.90;;;;;;;-3.05;100.00;103103.33;106001;1254;63723;-77
2024/01/22 04:30:25;;;;;;;14.80;8.90;;;;;;;-3.14;100.00;103109.20;106042;1251;71177;-77
2024/01/22 04:32:53;;;;;;;15.40;8.80;;;;;;;-3.22;100.00;103101.69;106039;1253;61946;-75
2024/01/22 04:35:20;;;;;;;20.60;9.20;;;;;;;-3.27;100.00;103106.64;106082;1251;60411;-77
2024/01/22 04:37:47;;;;;;;14.00;8.70;;;;;;;-3.30;100.00;103106.70;106106;1250;72415;-77
2024/01/22 04:40:14;;;;;;;16.00;9.60;;;;;;;-3.34;100.00;103111.34;105986;1249;62262;-77
2024/01/22 04:42:41;;;;;;;16.90;9.50;;;;;;;-3.41;100.00;103110.05;106016;1249;72436;-76
2024/01/22 04:45:09;;;;;;;23.80;10.10;;;;;;;-3.47;100.00;103110.52;106196;1253;62003;-75
2024/01/22 04:47:37;;;;;;;17.20;11.20;;;;;;;-3.50;100.00;103111.42;106064;1250;60514;-78
2024/01/22 04:50:04;;;;;;;18.60;10.00;;;;;;;-3.54;100.00;103108.01;106127;1252;72375;-76
2024/01/22 04:52:32;;;;;;;18.70;9.90;;;;;;;-3.60;100.00;103112.41;106047;1254;63666;-78
2024/01/22 04:54:59;;;;;;;21.50;11.70;;;;;;;-3.66;100.00;103116.96;105970;1254;72415;-75
2024/01/22 04:57:41;;;;;;;20.40;11.20;;;;;;;-3.71;100.00;103122.75;105913;1254;60450;-76
2024/01/22 05:00:09;;;;;;;22.30;11.80;;;;;;;-3.76;100.00;103121.89;106090;1250;60452;-74
2024/01/22 05:02:39;;;;;;;17.00;10.90;;;;;;;-3.79;100.00;103121.56;106126;1254;72848;-77
2024/01/22 05:05:06;;;;;;;20.70;12.80;;;;;;;-3.82;100.00;103123.16;106042;1254;63785;-76
2024/01/22 05:07:33;;;;;;;19.30;12.00;;;;;;;-3.83;100.00;103126.21;105958;1254;72560;-76
2024/01/22 05:10:04;;;;;;;20.60;11.80;;;;;;;-3.86;100.00;103128.15;106033;1253;61951;-77
2024/01/22 05:12:32;;;;;;;23.00;12.70;;;;;;;-3.91;100.00;103121.28;106069;1251;60437;-78
2024/01/22 05:14:59;;;;;;;19.90;12.50;;;;;;;-3.97;100.00;103116.59;106009;1254;73955;-78
2024/01/22 05:17:27;;;;;;;25.90;15.60;;;;;;;-4.03;100.00;103119.94;106100;1254;63827;-77
2024/01/22 05:19:54;;;;;;;26.90;14.50;;;;;;;-4.08;100.00;103116.50;106000;1253;70563;-78
2024/01/22 05:22:21;;;;;;;26.70;15.30;;;;;;;-4.08;100.00;103120.25;105979;1254;61972;-76
2024/01/22 05:24:48;;;;;;;24.60;16.10;;;;;;;-4.09;100.00;103118.51;106004;1253;60542;-76
2024/01/22 05:27:15;;;;;;;28.70;16.90;;;;;;;-4.10;100.00;103118.80;106070;1249;72431;-78
2024/01/22 05:29:42;;;;;;;27.20;16.80;;;;;;;-4.09;100.00;103122.25;106171;1253;63762;-77
2024/01/22 05:32:10;;;;;;;28.20;17.90;;;;;;;-4.07;100.00;103126.77;106073;1253;72409;-76
2024/01/22 05:34:37;;;;;;;33.20;20.00;;;;;;;-4.10;100.00;103127.52;106080;1254;62040;-77
2024/01/22 05:37:03;;;;;;;34.10;20.70;;;;;;;-4.11;100.00;103126.75;106224;1254;60480;-77
2024/01/22 05:39:31;;;;;;;37.00;20.70;;;;;;;-4.13;100.00;103124.30;105991;1252;74019;-77
2024/01/22 05:41:57;;;;;;;38.90;22.60;;;;;;;-4.13;100.00;103127.53;105978;1253;62373;-77
2024/01/22 05:44:25;;;;;;;37.40;21.60;;;;;;;-4.13;100.00;103125.33;105997;1254;72660;-76
2024/01/22 05:46:52;;;;;;;39.20;22.30;;;;;;;-4.13;100.00;103121.41;106081;1254;61928;-76
2024/01/22 05:49:20;;;;;;;42.10;23.30;;;;;;;-4.13;100.00;103120.91;106068;1256;60424;-77
2024/01/22 05:51:48;;;;;;;39.90;26.10;;;;;;;-4.10;100.00;103126.50;106026;1251;73767;-77
2024/01/22 05:54:15;;;;;;;43.20;27.40;;;;;;;-4.05;100.00;103131.28;106097;1253;62777;-77
2024/01/22 05:56:42;;;;;;;41.90;24.30;;;;;;;-4.02;100.00;103141.69;106057;1251;73458;-78
2024/01/22 05:59:09;;;;;;;48.00;27.30;;;;;;;-4.00;100.00;103145.20;106049;1254;61902;-77
2024/01/22 06:01:36;;;;;;;40.70;22.90;;;;;;;-3.99;100.00;103150.85;106093;1254;60341;-76
2024/01/22 06:04:06;;;;;;;35.90;19.20;;;;;;;-3.97;100.00;103157.45;105992;1251;72335;-77
2024/01/22 06:06:33;;;;;;;34.90;18.10;;;;;;;-3.96;100.00;103161.08;106060;1254;63730;-76
2024/01/22 06:09:00;;;;;;;37.10;22.00;;;;;;;-3.96;100.00;103162.94;105972;1255;72738;-76
2024/01/22 06:11:28;;;;;;;32.30;20.00;;;;;;;-3.93;100.00;103173.14;106005;1254;61931;-76
2024/01/22 06:13:56;;;;;;;38.60;21.90;;;;;;;-3.88;100.00;103180.34;106012;1250;60414;-75
2024/01/22 06:16:29;;;;;;;35.10;21.00;;;;;;;-3.84;100.00;103186.16;105995;1259;73813;-76
2024/01/22 06:18:56;;;;;;;39.70;22.10;;;;;;;-3.81;100.00;103187.80;106013;1254;62452;-77
2024/01/22 06:21:25;;;;;;;36.20;19.20;;;;;;;-3.80;100.00;103187.33;106127;1254;72419;-78
2024/01/22 06:23:52;;;;;;;39.20;20.10;;;;;;;-3.78;100.00;103182.83;106107;1252;61774;-76
2024/01/22 06:26:21;;;;;;;36.00;20.10;;;;;;;-3.72;100.00;103184.92;106020;1254;60442;-76
2024/01/22 06:28:48;;;;;;;36.40;20.10;;;;;;;-3.65;100.00;103184.36;106199;1250;73871;-76
2024/01/22 06:31:16;;;;;;;33.20;19.40;;;;;;;-3.60;100.00;103188.50;106216;1251;62482;-77
2024/01/22 06:33:43;;;;;;;33.40;17.50;;;;;;;-3.55;100.00;103193.30;108179;1253;71113;-77
2024/01/22 06:36:10;;;;;;;33.10;18.10;;;;;;;-3.53;100.00;103194.58;107106;1254;60501;-76
2024/01/22 06:38:37;;;;;;;33.20;18.90;;;;;;;-3.53;100.00;103191.52;106001;1251;60421;-76
2024/01/22 06:41:10;;;;;;;33.70;19.20;;;;;;;-3.52;100.00;103193.58;106118;1253;72477;-76
2024/01/22 06:43:38;;;;;;;40.90;21.80;;;;;;;-3.51;100.00;103202.16;106117;1253;61665;-76
2024/01/22 06:46:05;;;;;;;50.20;25.30;;;;;;;-3.47;100.00;103203.52;106151;1251;72695;-77
2024/01/22 06:48:32;;;;;;;36.50;22.10;;;;;;;-3.47;100.00;103200.61;106122;1255;61852;-77
2024/01/22 06:51:00;;;;;;;44.30;24.30;;;;;;;-3.48;100.00;103200.94;106151;1251;60421;-75
2024/01/22 06:53:27;;;;;;;44.80;25.30;;;;;;;-3.46;100.00;103194.83;106063;1259;73688;-77
2024/01/22 06:55:54;;;;;;;42.20;24.00;;;;;;;-3.43;100.00;103198.39;105999;1256;63892;-76
2024/01/22 06:58:22;;;;;;;42.00;24.30;;;;;;;-3.41;100.00;103201.88;106086;1251;72644;-76
2024/01/22 07:00:51;;;;;;;39.80;23.70;;;;;;;-3.36;100.00;103203.96;106005;1263;60550;-76
2024/01/22 07:03:20;;;;;;;43.00;25.20;;;;;;;-3.31;100.00;103204.84;106125;1252;60543;-77
2024/01/22 07:05:48;;;;;;;45.80;27.00;;;;;;;-3.28;100.00;103204.08;106046;1251;74926;-77
2024/01/22 07:08:16;;;;;;;43.20;24.10;;;;;;;-3.25;100.00;103204.94;105958;1254;62720;-77
2024/01/22 07:10:44;;;;;;;35.40;23.30;;;;;;;-3.24;100.00;103209.75;106004;1254;72416;-77
2024/01/22 07:13:11;;;;;;;40.20;22.80;;;;;;;-3.27;100.00;103207.57;106119;1253;60530;-77
2024/01/22 07:15:39;;;;;;;39.50;22.30;;;;;;;-3.32;100.00;103202.75;105942;1251;60440;-77
2024/01/22 07:18:07;;;;;;;44.30;23.10;;;;;;;-3.33;100.00;103201.00;106032;1254;72295;-76
2024/01/22 07:20:34;;;;;;;40.60;21.40;;;;;;;-3.29;100.00;103202.17;106056;1254;63717;-76
2024/01/22 07:23:01;;;;;;;38.80;23.60;;;;;;;-3.24;100.00;103204.61;106075;1251;72692;-75
2024/01/22 07:25:34;;;;;;;37.40;22.00;;;;;;;-3.20;100.00;103210.77;106071;1264;61873;-76
2024/01/22 07:28:00;;;;;;;45.60;23.60;;;;;;;-3.11;100.00;103209.55;106076;1254;60440;-79
2024/01/22 07:30:28;;;;;;;42.00;23.80;;;;;;;-3.02;100.00;103208.85;106087;1251;73792;-77
2024/01/22 07:32:56;;;;;;;43.20;25.50;;;;;;;-3.00;100.00;103208.42;105903;1255;63954;-76
2024/01/22 07:35:24;;;;;;;43.80;24.10;;;;;;;-2.98;100.00;103212.79;106222;1257;72420;-76
2024/01/22 07:37:51;;;;;;;50.70;27.30;;;;;;;-2.99;100.00;103218.23;107803;1251;60815;-76
2024/01/22 07:40:19;;;;;;;46.80;27.40;;;;;;;-3.00;100.00;103224.02;108165;1251;60326;-76
2024/01/22 07:42:46;;;;;;;42.80;25.80;;;;;;;-3.01;100.00;103225.52;109426;1250;72598;-76
2024/01/22 07:45:13;;;;;;;49.70;26.90;;;;;;;-3.00;100.00;103229.99;109544;1251;62552;-75
2024/01/22 07:47:40;;;;;;;49.50;27.40;;;;;;;-3.01;100.00;103224.13;106300;1254;71876;-76
2024/01/22 07:50:10;;;;;;;47.00;25.00;;;;;;;-3.00;100.00;103225.71;105929;1251;61871;-76
2024/01/22 07:52:38;;;;;;;49.10;28.20;;;;;;;-2.97;100.00;103224.79;106077;1251;60452;-77
2024/01/22 07:55:05;;;;;;;44.00;25.50;;;;;;;-2.92;100.00;103226.20;106086;1254;73795;-75
2024/01/22 07:57:32;;;;;;;41.40;24.00;;;;;;;-2.80;100.00;103227.30;106118;1254;63703;-77
2024/01/22 08:00:00;;;;;;;33.60;21.60;;;;;;;-2.72;100.00;103227.45;105987;1251;72670;-77
2024/01/22 08:02:27;;;;;;;33.10;21.30;;;;;;;-2.67;100.00;103230.20;106015;1253;61953;-76
2024/01/22 08:04:54;;;;;;;35.70;21.70;;;;;;;-2.60;100.00;103230.79;106023;1254;60326;-76
2024/01/22 08:07:21;;;;;;;36.20;20.00;;;;;;;-2.53;100.00;103234.48;106008;1251;73835;-76
2024/01/22 08:09:49;;;;;;;36.70;20.50;;;;;;;-2.46;100.00;103231.46;105904;1251;62328;-77
2024/01/22 08:12:15;;;;;;;32.10;19.30;;;;;;;-2.39;100.00;103231.56;106084;1254;72436;-75
2024/01/22 08:14:44;;;;;;;36.80;21.50;;;;;;;-2.34;100.00;103229.33;106032;1254;61207;-77
2024/01/22 08:17:11;;;;;;;40.30;21.80;;;;;;;-2.30;100.00;103227.41;106099;1254;61155;-76
2024/01/22 08:19:38;;;;;;;35.20;19.20;;;;;;;-2.24;100.00;103226.60;106255;1252;74099;-76
2024/01/22 08:22:06;;;;;;;33.60;19.80;;;;;;;-2.19;100.00;103230.73;106369;1254;63871;-76
2024/01/22 08:24:34;;;;;;;28.70;17.30;;;;;;;-2.22;100.00;103231.11;106450;1254;72814;-76
2024/01/22 08:27:02;;;;;;;31.30;18.20;;;;;;;-2.31;100.00;103232.88;106035;1253;61031;-78
2024/01/22 08:29:29;;;;;;;30.60;18.90;;;;;;;-2.33;100.00;103230.39;106096;1250;60446;-77
2024/01/22 08:31:57;;;;;;;34.20;19.50;;;;;;;-2.28;100.00;103229.04;106068;1254;73910;-77
2024/01/22 08:34:24;;;;;;;39.50;21.60;;;;;;;-2.21;100.00;103226.70;105989;1253;65068;-76
2024/01/22 08:36:51;;;;;;;47.90;25.90;;;;;;;-2.15;100.00;103219.55;106062;1253;72413;-77
2024/01/22 08:39:18;;;;;;;41.90;22.80;;;;;;;-2.07;100.00;103219.30;105995;1253;60443;-79
2024/01/22 08:41:45;;;;;;;33.30;20.50;;;;;;;-2.00;100.00;103221.10;106050;1254;60357;-77
2024/01/22 08:44:12;;;;;;;33.90;19.50;;;;;;;-1.98;100.00;103218.42;105850;1253;172873;-76
2024/01/22 08:48:16;;;;;;;42.50;25.80;;;;;;;-2.01;100.00;103218.84;102584;1290;616378;-77
2024/01/22 08:50:43;;;;;;;42.60;25.30;;;;;;;-2.02;100.00;103219.63;104912;1271;59951;-77
2024/01/22 08:53:10;;;;;;;45.40;24.50;;;;;;;-1.96;100.00;103221.90;105056;1265;60392;-77
2024/01/22 08:55:37;;;;;;;41.20;23.50;;;;;;;-1.88;100.00;103217.21;105032;1264;72117;-76
2024/01/22 08:58:04;;;;;;;38.20;23.50;;;;;;;-1.77;100.00;103215.20;105108;1266;64566;-78
2024/01/22 09:00:31;;;;;;;41.80;23.70;;;;;;;-1.70;100.00;103207.88;105328;1260;188334;-77
2024/01/22 09:02:59;;;;;;;36.20;21.90;;;;;;;-1.60;100.00;103210.24;105539;1260;61080;-77
2024/01/22 09:06:22;;;;;;;36.00;21.00;;;;;;;-1.52;100.00;103211.54;105402;1257;60996;-77
2024/01/22 09:08:49;;;;;;;31.60;20.10;;;;;;;-1.48;100.00;103210.83;105349;1261;72419;-77
2024/01/22 09:11:17;;;;;;;29.20;18.10;;;;;;;-1.46;100.00;103210.02;105342;1260;63958;-78
2024/01/22 09:13:45;;;;;;;32.80;19.50;;;;;;;-1.40;100.00;103208.48;105450;1256;72785;-77
2024/01/22 09:16:14;;;;;;;33.50;17.70;;;;;;;-1.33;100.00;103207.82;105470;1257;59725;-77
2024/01/22 09:18:44;;;;;;;33.00;20.00;;;;;;;-1.31;100.00;103203.09;105920;1253;59639;-77
2024/01/22 09:21:12;;;;;;;36.80;20.80;;;;;;;-1.30;100.00;103200.02;106012;1250;74257;-75
2024/01/22 09:23:40;;;;;;;43.30;24.60;;;;;;;-1.27;100.00;103200.81;105912;1250;62362;-76
2024/01/22 09:26:07;;;;;;;39.50;24.40;;;;;;;-1.26;100.00;103198.79;105991;1251;73558;-77
2024/01/22 09:28:34;;;;;;;35.70;21.70;;;;;;;-1.32;100.00;103195.52;105928;1253;60314;-77
2024/01/22 09:31:01;;;;;;;41.40;24.60;;;;;;;-1.42;100.00;103195.52;105988;1251;60065;-77
2024/01/22 09:33:28;;;;;;;39.70;24.10;;;;;;;-1.50;100.00;103193.42;106051;1251;72956;-76
2024/01/22 09:35:55;;;;;;;34.00;22.80;;;;;;;-1.49;100.00;103193.25;106157;1250;63408;-76
2024/01/22 09:38:23;;;;;;;35.20;22.80;;;;;;;-1.46;100.00;103189.92;105861;1250;71369;-77
2024/01/22 09:40:51;;;;;;;32.30;20.30;;;;;;;-1.40;100.00;103189.96;105937;1253;61054;-77
2024/01/22 09:43:19;;;;;;;28.60;19.50;;;;;;;-1.37;100.00;103189.36;106047;1254;59609;-76
2024/01/22 09:45:47;;;;;;;36.50;20.60;;;;;;;-1.37;100.00;103187.12;106161;1254;73096;-76
2024/01/22 09:48:14;;;;;;;35.10;21.40;;;;;;;-1.35;100.00;103185.81;105987;1254;63973;-76
2024/01/22 09:50:41;;;;;;;37.20;23.20;;;;;;;-1.32;100.00;103181.10;106004;1250;70973;-76
2024/01/22 09:53:11;;;;;;;33.10;20.60;;;;;;;-1.29;100.00;103181.02;106042;1254;61262;-76
2024/01/22 09:55:41;;;;;;;24.70;15.70;;;;;;;-1.22;100.00;103180.18;106018;1250;60175;-77
2024/01/22 09:58:11;;;;;;;43.30;24.20;;;;;;;-1.21;100.00;103182.11;105892;1254;72745;-77
2024/01/22 10:00:39;;;;;;;38.10;22.30;;;;;;;-1.20;100.00;103178.35;105959;1254;64070;-77
2024/01/22 10:03:07;;;;;;;30.30;20.30;;;;;;;-1.15;100.00;103171.47;105797;1256;73041;-77
2024/01/22 10:05:34;;;;;;;29.80;19.10;;;;;;;-1.13;100.00;103166.55;105681;1256;61102;-77
2024/01/22 10:08:01;;;;;;;29.70;18.80;;;;;;;-1.13;100.00;103168.27;105858;1250;60284;-78
2024/01/22 10:10:28;;;;;;;26.30;15.90;;;;;;;-1.14;100.00;103172.86;105844;1256;73442;-77
2024/01/22 10:12:57;;;;;;;22.40;15.10;;;;;;;-1.22;100.00;103174.86;105871;1254;63812;-76
2024/01/22 10:15:25;;;;;;;27.70;16.00;;;;;;;-1.40;100.00;103172.44;105889;1250;72642;-77
2024/01/22 10:17:52;;;;;;;24.40;16.40;;;;;;;-1.56;100.00;103164.05;105952;1255;60717;-77
2024/01/22 10:20:21;;;;;;;23.10;15.10;;;;;;;-1.55;100.00;103166.48;105998;1250;60229;-76
2024/01/22 10:22:59;;;;;;;25.50;16.80;;;;;;;-1.51;100.00;103166.78;105890;1250;74273;-77
2024/01/22 10:25:26;;;;;;;24.10;14.20;;;;;;;-1.45;100.00;103162.15;105806;1251;65061;-78
2024/01/22 10:28:12;;;;;;;25.50;16.50;;;;;;;-1.43;100.00;103159.14;105904;1250;72638;-76
2024/01/22 10:30:40;;;;;;;28.70;17.20;;;;;;;-1.46;100.00;103157.34;105964;1255;63287;-76
2024/01/22 10:33:09;;;;;;;27.30;16.90;;;;;;;-1.47;100.00;103157.65;105930;1254;59523;-76
2024/01/22 10:35:36;;;;;;;29.60;15.80;;;;;;;-1.46;100.00;103154.42;105857;1254;73954;-76
2024/01/22 10:38:08;;;;;;;24.00;14.40;;;;;;;-1.51;100.00;103152.54;105915;1254;63962;-77
2024/01/22 10:40:35;;;;;;;22.10;13.00;;;;;;;-1.60;100.00;103150.20;106061;1250;73451;-77
2024/01/22 10:43:17;;;;;;;28.30;16.30;;;;;;;-1.66;100.00;103146.92;105873;1251;60394;-74
2024/01/22 10:45:48;;;;;;;31.00;16.50;;;;;;;-1.68;100.00;103141.38;105982;1254;59607;-76
2024/01/22 10:48:21;;;;;;;28.50;17.30;;;;;;;-1.68;100.00;103135.73;106084;1250;72971;-76
2024/01/22 10:51:05;;;;;;;29.20;17.00;;;;;;;-1.65;100.00;103130.48;105991;1250;63051;-76
2024/01/22 10:53:32;;;;;;;37.30;20.90;;;;;;;-1.65;100.00;103123.80;106102;1255;72652;-76
2024/01/22 10:56:01;;;;;;;31.70;17.70;;;;;;;-1.66;100.00;103121.55;106004;1250;61236;-76
2024/01/22 10:58:33;;;;;;;39.90;21.10;;;;;;;-1.59;100.00;103119.88;105952;1250;59866;-76